Time;durP1;ratioP1;P1;durP2;ratioP2;P2;SDS_P1;SDS_P2;PMS_P1;PMS_P2;Temp;Humidity;BMP_temperature;BMP_pressure;BME280_temperature;BME280_humidity;BME280_pressure;Samples;Min_cycle;Max_cycle;Signal;HPM_P1;HPM_P2
2023/08/20 00:01:45;;;;;;;7.20;4.38;;;;;;;17.43;100.00;101975.19;5030203;28;20413;-76
2023/08/20 00:04:12;;;;;;;7.50;4.30;;;;;;;17.41;100.00;101971.81;5029176;28;20025;-75
2023/08/20 00:06:38;;;;;;;8.82;4.25;;;;;;;17.35;100.00;101972.34;5028774;28;20045;-76
2023/08/20 00:09:04;;;;;;;7.60;4.20;;;;;;;17.37;100.00;101970.41;5028853;28;20029;-75
2023/08/20 00:11:30;;;;;;;7.50;4.03;;;;;;;17.35;100.00;101974.16;5028986;28;20025;-76
2023/08/20 00:13:56;;;;;;;9.40;4.25;;;;;;;17.34;100.00;101970.66;5028485;28;20029;-76
2023/08/20 00:16:21;;;;;;;8.05;3.90;;;;;;;17.31;100.00;101959.44;5028612;28;20487;-75
2023/08/20 00:18:47;;;;;;;10.82;4.68;;;;;;;17.28;100.00;101949.91;5028022;28;20037;-75
2023/08/20 00:21:14;;;;;;;8.15;3.47;;;;;;;17.25;100.00;101954.66;5028481;28;20060;-75
2023/08/20 00:23:39;;;;;;;8.02;3.55;;;;;;;17.24;100.00;101948.47;5028946;28;20041;-75
2023/08/20 00:26:05;;;;;;;8.00;3.70;;;;;;;17.18;100.00;101951.63;5028068;28;20596;-76
2023/08/20 00:28:33;;;;;;;9.23;3.65;;;;;;;17.19;100.00;101955.97;5036345;28;20392;-76
2023/08/20 00:31:00;;;;;;;8.02;3.63;;;;;;;17.20;100.00;101970.97;5048296;28;20028;-76
2023/08/20 00:33:25;;;;;;;8.20;4.05;;;;;;;17.19;100.00;101978.09;5047805;28;20547;-76
2023/08/20 00:35:51;;;;;;;10.98;4.10;;;;;;;17.19;100.00;101977.25;5048286;28;20021;-76
2023/08/20 00:38:16;;;;;;;10.52;4.22;;;;;;;17.15;100.00;101981.16;5047122;28;20025;-76
2023/08/20 00:40:42;;;;;;;9.63;4.35;;;;;;;17.18;100.00;101980.88;5047766;28;20021;-76
2023/08/20 00:43:08;;;;;;;8.02;4.57;;;;;;;17.17;100.00;101984.53;5051185;28;20017;-76
2023/08/20 00:45:34;;;;;;;7.97;4.22;;;;;;;17.22;100.00;101990.31;5050999;28;20120;-76
2023/08/20 00:47:59;;;;;;;9.52;4.55;;;;;;;17.22;100.00;102000.97;5051340;28;20489;-76
2023/08/20 00:50:25;;;;;;;8.07;4.18;;;;;;;17.23;100.00;102007.97;5050622;28;20040;-76
2023/08/20 00:52:50;;;;;;;10.23;4.45;;;;;;;17.21;100.00;102002.78;5052360;28;20025;-76
2023/08/20 00:55:16;;;;;;;9.43;4.45;;;;;;;17.17;100.00;102005.78;5036634;28;20091;-76
2023/08/20 00:57:44;;;;;;;13.88;4.22;;;;;;;17.12;100.00;102002.69;5031811;28;20030;-76
2023/08/20 01:00:10;;;;;;;9.88;4.20;;;;;;;17.22;100.00;102011.59;5032446;28;20029;-76
2023/08/20 01:02:37;;;;;;;11.00;4.10;;;;;;;17.26;100.00;102026.34;5033384;28;20037;-76
2023/08/20 01:05:07;;;;;;;9.30;3.47;;;;;;;17.22;100.00;102020.44;5032892;28;20112;-76
2023/08/20 01:07:43;;;;;;;8.32;3.80;;;;;;;17.30;100.00;102037.56;5031416;28;20474;-76
2023/08/20 01:10:16;;;;;;;9.70;3.70;;;;;;;17.27;100.00;102038.66;5032832;28;20017;-76
2023/08/20 01:12:43;;;;;;;8.90;3.78;;;;;;;17.25;100.00;102040.59;5031160;28;20025;-76
2023/08/20 01:15:13;;;;;;;8.73;3.60;;;;;;;17.28;100.00;102044.84;5032373;28;20539;-77
2023/08/20 01:17:40;;;;;;;11.38;3.85;;;;;;;17.33;100.00;102048.78;5033020;28;20025;-76
2023/08/20 01:20:06;;;;;;;10.05;3.80;;;;;;;17.29;100.00;102038.53;5032842;28;20021;-76
2023/08/20 01:22:58;;;;;;;8.43;3.40;;;;;;;17.36;100.00;102031.72;5031921;28;20108;-76
2023/08/20 01:25:49;;;;;;;10.88;3.58;;;;;;;17.36;100.00;102021.94;5029214;28;20056;-76
2023/08/20 01:28:28;;;;;;;9.15;3.28;;;;;;;17.43;100.00;102033.75;5034018;28;20037;-76
2023/08/20 01:30:56;;;;;;;10.60;4.10;;;;;;;17.44;100.00;102029.25;5051154;28;20082;-76
2023/08/20 01:33:23;;;;;;;11.77;4.10;;;;;;;17.43;100.00;102028.41;5049812;28;20393;-76
2023/08/20 01:35:50;;;;;;;10.43;4.10;;;;;;;17.49;100.00;102027.91;5050295;28;20028;-76
2023/08/20 01:38:15;;;;;;;9.43;3.78;;;;;;;17.51;100.00;102025.94;5051098;28;20021;-76
2023/08/20 01:40:44;;;;;;;8.35;3.88;;;;;;;17.52;100.00;102032.97;5051325;28;20079;-76
2023/08/20 01:43:10;;;;;;;7.18;3.80;;;;;;;17.55;100.00;102030.03;5050385;28;20025;-76
2023/08/20 01:45:35;;;;;;;9.75;4.00;;;;;;;17.57;100.00;102023.75;5051017;28;20029;-76
2023/08/20 01:48:01;;;;;;;10.80;4.20;;;;;;;17.59;100.00;102027.97;5050589;28;20344;-76
2023/08/20 01:50:26;;;;;;;12.57;4.05;;;;;;;17.61;100.00;102031.34;5048981;28;20039;-76
2023/08/20 01:52:52;;;;;;;8.57;3.75;;;;;;;17.62;100.00;102032.19;5049068;28;20431;-76
2023/08/20 01:55:17;;;;;;;10.25;3.75;;;;;;;17.65;100.00;102037.25;5034761;28;20022;-76
2023/08/20 01:57:43;;;;;;;13.18;4.07;;;;;;;17.70;100.00;102035.09;5030174;28;20025;-76
2023/08/20 02:00:09;;;;;;;8.43;3.40;;;;;;;17.69;100.00;102044.03;5030779;28;20025;-77
2023/08/20 02:02:34;;;;;;;8.05;3.30;;;;;;;17.72;100.00;102047.28;5030921;28;20112;-76
2023/08/20 02:05:00;;;;;;;6.45;2.97;;;;;;;17.73;100.00;102050.78;5030811;28;20334;-76
2023/08/20 02:07:26;;;;;;;9.02;3.50;;;;;;;17.74;100.00;102055.97;5030385;28;20026;-76
2023/08/20 02:09:51;;;;;;;9.40;3.58;;;;;;;17.76;100.00;102051.38;5030283;28;20464;-76
2023/08/20 02:12:17;;;;;;;13.57;4.07;;;;;;;17.77;100.00;102049.56;5031260;28;20067;-76
2023/08/20 02:14:43;;;;;;;8.75;3.78;;;;;;;17.76;100.00;102058.53;5031328;28;20075;-77
2023/08/20 02:17:08;;;;;;;9.98;3.50;;;;;;;17.81;100.00;102061.63;5031519;28;20578;-76
2023/08/20 02:19:34;;;;;;;8.48;3.42;;;;;;;17.77;100.00;102060.19;5031180;28;20112;-76
2023/08/20 02:21:59;;;;;;;10.00;3.95;;;;;;;17.75;100.00;102059.50;5031200;28;20780;-76
2023/08/20 02:24:25;;;;;;;8.98;3.25;;;;;;;17.80;100.00;102057.28;5029604;28;20059;-76
2023/08/20 02:26:50;;;;;;;9.82;3.55;;;;;;;17.81;100.00;102069.63;5030984;28;20029;-76
2023/08/20 02:29:15;;;;;;;11.73;3.70;;;;;;;17.81;100.00;102066.94;5045353;28;20025;-76
2023/08/20 02:31:44;;;;;;;8.85;3.97;;;;;;;17.81;100.00;102057.16;5050741;28;20537;-76
2023/08/20 02:34:09;;;;;;;9.25;3.65;;;;;;;17.78;100.00;102054.75;5051092;28;20017;-76
2023/08/20 02:36:35;;;;;;;9.15;3.63;;;;;;;17.82;100.00;102050.00;5051021;28;20036;-76
2023/08/20 02:39:00;;;;;;;8.57;3.33;;;;;;;17.83;100.00;102055.19;5047804;28;20025;-76
2023/08/20 02:41:25;;;;;;;9.15;3.50;;;;;;;17.75;100.00;102048.84;5049726;28;20481;-76
2023/08/20 02:43:51;;;;;;;8.50;3.47;;;;;;;17.70;100.00;102043.91;5048334;28;20049;-76
2023/08/20 02:46:16;;;;;;;7.13;3.30;;;;;;;17.67;100.00;102051.31;5049052;28;20056;-76
2023/08/20 02:48:42;;;;;;;6.63;3.25;;;;;;;17.57;100.00;102047.69;5049517;28;20024;-76
2023/08/20 02:51:09;;;;;;;6.95;3.30;;;;;;;17.51;100.00;102046.38;5049906;28;20021;-76
2023/08/20 02:53:35;;;;;;;5.78;3.35;;;;;;;17.49;100.00;102051.84;5047587;28;20542;-76
2023/08/20 02:56:00;;;;;;;6.13;3.30;;;;;;;17.42;100.00;102045.34;5028320;28;20132;-76
2023/08/20 02:58:26;;;;;;;10.00;4.05;;;;;;;17.37;100.00;102052.88;5028340;28;20072;-76
2023/08/20 03:00:51;;;;;;;10.23;3.53;;;;;;;17.31;100.00;102042.75;5028750;28;20018;-76
2023/08/20 03:03:17;;;;;;;6.82;3.38;;;;;;;17.29;100.00;102047.38;5029495;28;20025;-76
2023/08/20 03:05:42;;;;;;;8.57;3.47;;;;;;;17.24;100.00;102044.25;5027572;28;20485;-76
2023/08/20 03:08:08;;;;;;;6.65;3.72;;;;;;;17.20;100.00;102038.31;5028892;28;20030;-76
2023/08/20 03:10:34;;;;;;;10.55;3.80;;;;;;;17.11;100.00;102036.41;5029722;28;20530;-77
2023/08/20 03:13:03;;;;;;;10.45;3.90;;;;;;;17.07;100.00;102036.78;5029555;28;20489;-76
2023/08/20 03:15:29;;;;;;;6.63;3.58;;;;;;;16.98;100.00;102035.75;5029884;28;20022;-76
2023/08/20 03:17:54;;;;;;;8.10;3.55;;;;;;;16.98;100.00;102035.75;5030021;28;20021;-76
2023/08/20 03:20:20;;;;;;;8.55;3.85;;;;;;;16.97;100.00;102035.88;5029174;28;20465;-77
2023/08/20 03:22:46;;;;;;;6.68;3.65;;;;;;;16.90;100.00;102036.38;5028235;28;20120;-76
2023/08/20 03:25:11;;;;;;;8.00;4.00;;;;;;;16.87;100.00;102036.63;5030356;28;20021;-76
2023/08/20 03:27:36;;;;;;;7.63;3.78;;;;;;;16.85;100.00;102033.25;5029465;28;20030;-76
2023/08/20 03:30:03;;;;;;;7.32;3.85;;;;;;;16.76;100.00;102033.97;5050264;28;20052;-76
2023/08/20 03:32:29;;;;;;;7.47;3.95;;;;;;;16.72;100.00;102037.84;5013484;28;20053;-76
2023/08/20 03:34:55;;;;;;;7.00;4.20;;;;;;;16.67;100.00;102034.72;5012843;28;20053;-76
2023/08/20 03:37:21;;;;;;;7.93;3.75;;;;;;;16.70;100.00;102033.63;5020324;28;20021;-76
2023/08/20 03:39:47;;;;;;;6.95;4.10;;;;;;;16.61;100.00;102032.53;5029602;28;20029;-76
2023/08/20 03:42:12;;;;;;;6.50;3.92;;;;;;;16.59;100.00;102034.47;5029517;28;20116;-76
2023/08/20 03:44:37;;;;;;;7.95;3.90;;;;;;;16.60;100.00;102033.50;5030374;28;20032;-76
2023/08/20 03:47:03;;;;;;;7.72;4.65;;;;;;;16.56;100.00;102037.38;5029598;28;20103;-76
2023/08/20 03:49:28;;;;;;;8.82;4.70;;;;;;;16.53;100.00;102034.97;5029422;28;20197;-76
2023/08/20 03:51:54;;;;;;;8.00;4.63;;;;;;;16.46;100.00;102047.06;5029701;28;20024;-76
2023/08/20 03:54:20;;;;;;;7.07;4.10;;;;;;;16.46;100.00;102047.06;5037205;28;20071;-76
2023/08/20 03:56:45;;;;;;;9.48;4.65;;;;;;;16.42;100.00;102054.44;5048236;28;20048;-76
2023/08/20 03:59:11;;;;;;;13.30;4.38;;;;;;;16.34;100.00;102042.69;5048531;28;20340;-75
2023/08/20 04:01:36;;;;;;;7.72;4.32;;;;;;;16.32;100.00;102049.94;5047706;28;20504;-77
2023/08/20 04:04:03;;;;;;;7.68;4.28;;;;;;;16.29;100.00;102040.41;5046746;28;20037;-77
2023/08/20 04:06:28;;;;;;;9.10;4.38;;;;;;;16.28;100.00;102054.66;5048672;28;20025;-75
2023/08/20 04:08:54;;;;;;;10.13;4.68;;;;;;;16.25;100.00;102060.22;5048165;28;20078;-75
2023/08/20 04:11:19;;;;;;;10.57;4.68;;;;;;;16.22;100.00;102055.97;5048049;28;20017;-75
2023/08/20 04:13:45;;;;;;;6.60;3.88;;;;;;;16.18;100.00;102062.50;5048509;28;20079;-75
2023/08/20 04:16:11;;;;;;;7.07;4.22;;;;;;;16.17;100.00;102068.78;5049753;28;20028;-76
2023/08/20 04:18:36;;;;;;;7.93;4.53;;;;;;;16.13;100.00;102069.16;5051067;28;20025;-76
2023/08/20 04:21:02;;;;;;;10.15;4.72;;;;;;;16.12;100.00;102067.47;5052255;28;20037;-76
2023/08/20 04:23:27;;;;;;;6.07;4.22;;;;;;;16.08;100.00;102064.19;5052387;28;20021;-76
2023/08/20 04:25:52;;;;;;;9.32;4.20;;;;;;;16.05;100.00;102066.25;5051611;28;20113;-76
2023/08/20 04:28:18;;;;;;;8.30;4.25;;;;;;;16.04;100.00;102078.69;5045028;28;20024;-76
2023/08/20 04:30:43;;;;;;;9.50;4.60;;;;;;;16.02;100.00;102077.94;5031957;28;20025;-76
2023/08/20 04:33:09;;;;;;;8.10;4.50;;;;;;;15.98;100.00;102072.00;5031420;28;20025;-76
2023/08/20 04:35:34;;;;;;;7.28;4.75;;;;;;;15.98;100.00;102076.47;5033958;28;20133;-76
2023/08/20 04:38:00;;;;;;;6.72;4.20;;;;;;;15.94;100.00;102077.66;5031119;28;20100;-76
2023/08/20 04:40:25;;;;;;;8.23;4.38;;;;;;;15.96;100.00;102068.63;5033162;28;20021;-74
2023/08/20 04:42:51;;;;;;;11.43;5.20;;;;;;;15.95;100.00;102077.56;5032865;28;20052;-75
2023/08/20 04:45:19;;;;;;;7.95;4.80;;;;;;;15.98;100.00;102073.81;5032633;28;20815;-75
2023/08/20 04:47:48;;;;;;;8.00;5.20;;;;;;;15.98;100.00;102069.34;5032661;28;20077;-75
2023/08/20 04:50:13;;;;;;;7.82;4.70;;;;;;;16.00;100.00;102077.19;5032998;28;20033;-75
2023/08/20 04:52:39;;;;;;;8.60;5.00;;;;;;;16.01;100.00;102083.34;5032891;28;20079;-75
2023/08/20 04:55:09;;;;;;;7.97;4.78;;;;;;;16.01;100.00;102076.25;5047608;28;20057;-75
2023/08/20 04:57:34;;;;;;;8.35;4.75;;;;;;;15.98;100.00;102084.44;5051976;28;20370;-75
2023/08/20 05:00:00;;;;;;;8.40;4.85;;;;;;;15.97;100.00;102085.41;5050649;28;20153;-75
2023/08/20 05:02:25;;;;;;;7.45;5.00;;;;;;;15.99;100.00;102080.81;5051518;28;20029;-75
2023/08/20 05:04:50;;;;;;;8.85;4.85;;;;;;;16.01;100.00;102089.53;5052602;28;20025;-75
2023/08/20 05:07:16;;;;;;;8.85;4.90;;;;;;;16.02;100.00;102088.56;5051913;28;20071;-75
2023/08/20 05:09:44;;;;;;;9.18;4.97;;;;;;;15.99;100.00;102091.44;5052724;28;20059;-76
2023/08/20 05:12:10;;;;;;;7.50;4.80;;;;;;;16.01;100.00;102083.34;5051997;28;20074;-75
2023/08/20 05:14:35;;;;;;;10.15;5.03;;;;;;;16.04;100.00;102086.63;5051559;28;20021;-75
2023/08/20 05:17:00;;;;;;;6.88;4.78;;;;;;;16.03;100.00;102086.75;5051781;28;20528;-74
2023/08/20 05:19:26;;;;;;;7.40;4.90;;;;;;;16.03;100.00;102092.91;5050307;28;20112;-75
2023/08/20 05:21:55;;;;;;;7.18;5.07;;;;;;;16.07;100.00;102099.69;5051146;28;20025;-75
2023/08/20 05:24:21;;;;;;;9.13;5.18;;;;;;;16.12;100.00;102101.97;5051698;28;20024;-75
2023/08/20 05:26:47;;;;;;;8.27;5.40;;;;;;;16.16;100.00;102100.78;5051456;28;20017;-76
2023/08/20 05:29:12;;;;;;;8.70;5.45;;;;;;;16.15;100.00;102097.28;5036261;28;20051;-76
2023/08/20 05:31:37;;;;;;;9.88;5.50;;;;;;;16.18;100.00;102107.66;5031875;28;20077;-75
2023/08/20 05:34:03;;;;;;;7.25;5.15;;;;;;;16.22;100.00;102109.09;5031562;28;20448;-74
2023/08/20 05:36:28;;;;;;;8.45;5.15;;;;;;;16.27;100.00;102101.63;5030739;28;20032;-75
2023/08/20 05:38:53;;;;;;;9.57;5.60;;;;;;;16.37;100.00;102111.53;5029953;28;20444;-75
2023/08/20 05:41:19;;;;;;;8.18;5.30;;;;;;;16.45;100.00;102103.81;5029098;28;20120;-75
2023/08/20 05:43:44;;;;;;;8.18;5.80;;;;;;;16.50;100.00;102109.63;5031240;28;20474;-75
2023/08/20 05:46:09;;;;;;;8.02;5.47;;;;;;;16.56;100.00;102101.16;5029487;28;21233;-75
2023/08/20 05:48:35;;;;;;;9.32;5.78;;;;;;;16.59;100.00;102111.53;5029771;28;20591;-75
2023/08/20 05:51:00;;;;;;;8.52;5.28;;;;;;;16.63;100.00;102110.31;5031672;28;20490;-75
2023/08/20 05:53:25;;;;;;;7.65;5.50;;;;;;;16.61;100.00;102106.94;5031398;28;20486;-75
2023/08/20 05:55:51;;;;;;;11.18;5.80;;;;;;;16.69;100.00;102101.88;5050076;28;20057;-75
2023/08/20 05:58:16;;;;;;;10.13;5.95;;;;;;;16.71;100.00;102102.59;5051546;28;20033;-75
2023/08/20 06:00:42;;;;;;;10.20;5.53;;;;;;;16.72;100.00;102106.97;5050436;28;20025;-75
2023/08/20 06:03:08;;;;;;;11.48;5.88;;;;;;;16.77;100.00;102099.47;5051073;28;20107;-75
2023/08/20 06:05:36;;;;;;;11.23;6.38;;;;;;;16.75;100.00;102097.91;5050708;28;20017;-75
2023/08/20 06:08:01;;;;;;;12.23;6.40;;;;;;;16.81;100.00;102098.28;5051337;28;20143;-75
2023/08/20 06:10:27;;;;;;;8.65;5.78;;;;;;;16.85;100.00;102097.06;5050864;28;20073;-75
2023/08/20 06:12:53;;;;;;;11.65;6.30;;;;;;;16.89;100.00;102093.19;5050141;28;20086;-75
2023/08/20 06:15:18;;;;;;;14.88;6.95;;;;;;;16.90;100.00;102099.34;5051312;28;20595;-75
2023/08/20 06:17:44;;;;;;;11.52;6.15;;;;;;;16.95;100.00;102099.81;5050844;28;20449;-75
2023/08/20 06:20:11;;;;;;;13.52;6.78;;;;;;;17.04;100.00;102095.56;5051123;28;20484;-75
2023/08/20 06:22:37;;;;;;;14.02;6.88;;;;;;;17.13;100.00;102097.44;5051473;28;20060;-75
2023/08/20 06:25:03;;;;;;;15.18;7.43;;;;;;;17.20;100.00;102096.81;5048427;28;20108;-75
2023/08/20 06:27:28;;;;;;;14.05;7.32;;;;;;;17.26;100.00;102098.16;5050160;28;20544;-76
2023/08/20 06:29:54;;;;;;;12.98;6.47;;;;;;;17.30;100.00;102102.25;5030833;28;20022;-75
2023/08/20 06:32:19;;;;;;;13.15;6.45;;;;;;;17.34;100.00;102101.03;5029423;28;20030;-76
2023/08/20 06:34:44;;;;;;;12.57;6.70;;;;;;;17.38;100.00;102105.13;5030240;28;20025;-76
2023/08/20 06:37:10;;;;;;;14.27;7.55;;;;;;;17.46;100.00;102107.13;5029885;28;20033;-75
2023/08/20 06:39:35;;;;;;;15.07;7.70;;;;;;;17.55;100.00;102112.53;5029042;28;20079;-75
2023/08/20 06:42:00;;;;;;;17.55;7.57;;;;;;;17.63;100.00;102111.09;5029808;28;20084;-75
2023/08/20 06:44:26;;;;;;;14.35;7.57;;;;;;;17.71;100.00;102112.16;5030066;28;20024;-74
2023/08/20 06:46:51;;;;;;;13.75;8.13;;;;;;;17.76;100.00;102104.63;5029074;28;20049;-75
2023/08/20 06:49:17;;;;;;;15.82;7.80;;;;;;;17.87;100.00;102116.19;5029801;28;20109;-75
2023/08/20 06:51:42;;;;;;;14.13;7.30;;;;;;;17.93;100.00;102119.16;5029204;28;20025;-76
2023/08/20 06:54:11;;;;;;;16.50;7.82;;;;;;;18.05;100.00;102118.13;5036156;28;20563;-75
2023/08/20 06:56:36;;;;;;;16.48;7.38;;;;;;;18.10;100.00;102109.75;5050208;28;20035;-75
2023/08/20 06:59:03;;;;;;;14.10;7.20;;;;;;;18.23;100.00;102107.72;5047563;28;20393;-75
2023/08/20 07:01:28;;;;;;;16.63;7.18;;;;;;;18.31;100.00;102113.22;5049636;28;20075;-76
2023/08/20 07:03:54;;;;;;;15.82;7.30;;;;;;;18.45;100.00;102120.03;5049710;28;20516;-75
2023/08/20 07:06:19;;;;;;;11.60;6.20;;;;;;;18.60;100.00;102121.34;5047776;28;20120;-75
2023/08/20 07:08:44;;;;;;;11.25;6.22;;;;;;;18.73;100.00;102116.66;5050540;28;20063;-75
2023/08/20 07:11:10;;;;;;;14.02;6.65;;;;;;;18.95;100.00;102122.75;5050152;28;20025;-75
2023/08/20 07:13:35;;;;;;;11.45;6.43;;;;;;;19.19;100.00;102127.72;5049122;28;20075;-76
2023/08/20 07:16:01;;;;;;;14.40;6.72;;;;;;;19.39;99.73;102114.25;5050162;28;20473;-75
2023/08/20 07:18:27;;;;;;;9.80;5.60;;;;;;;19.59;99.16;102120.47;5049060;28;20180;-75
2023/08/20 07:20:52;;;;;;;13.10;5.90;;;;;;;19.78;99.06;102124.13;5048400;28;20017;-75
2023/08/20 07:23:17;;;;;;;13.73;5.68;;;;;;;20.01;98.17;102115.66;5050193;28;20473;-75
2023/08/20 07:25:44;;;;;;;11.77;5.82;;;;;;;20.20;97.40;102117.44;5050143;28;20021;-75
2023/08/20 07:28:11;;;;;;;12.55;5.75;;;;;;;20.50;93.81;102126.22;5044425;28;20029;-75
2023/08/20 07:30:36;;;;;;;10.48;4.70;;;;;;;20.68;92.32;102121.78;5030366;28;20033;-75
2023/08/20 07:33:03;;;;;;;10.65;4.68;;;;;;;21.02;87.53;102122.03;5029100;28;20439;-75
2023/08/20 07:35:28;;;;;;;8.13;3.78;;;;;;;21.22;83.65;102117.41;5028607;28;20047;-76
2023/08/20 07:37:53;;;;;;;9.25;4.10;;;;;;;21.49;82.49;102119.16;5027828;28;20029;-75
2023/08/20 07:40:19;;;;;;;9.90;4.72;;;;;;;21.65;83.54;102119.34;5027605;28;20060;-76
2023/08/20 07:42:45;;;;;;;9.60;4.50;;;;;;;21.94;82.03;102123.56;5028534;28;20032;-76
2023/08/20 07:45:10;;;;;;;9.35;4.40;;;;;;;22.21;80.15;102120.75;5029011;28;20051;-76
2023/08/20 07:47:37;;;;;;;12.52;5.00;;;;;;;22.33;78.41;102130.22;5027981;28;20037;-76
2023/08/20 07:50:04;;;;;;;9.85;4.20;;;;;;;22.48;78.59;102130.47;5027213;28;20044;-76
2023/08/20 07:52:30;;;;;;;9.30;4.43;;;;;;;22.75;78.20;102134.78;5027248;28;20438;-76
2023/08/20 07:54:55;;;;;;;11.68;4.28;;;;;;;22.96;76.92;102132.53;5041177;28;20131;-76
2023/08/20 07:57:21;;;;;;;12.13;4.18;;;;;;;23.20;77.27;102134.44;5048800;28;20021;-75
2023/08/20 07:59:47;;;;;;;12.68;4.47;;;;;;;23.38;76.47;102142.38;5047654;28;20029;-76
2023/08/20 08:02:12;;;;;;;10.55;4.07;;;;;;;23.64;73.14;102127.00;5047952;28;20144;-76
2023/08/20 08:04:37;;;;;;;8.35;3.67;;;;;;;23.65;71.18;102134.03;5049166;28;20032;-76
2023/08/20 08:07:03;;;;;;;5.15;3.35;;;;;;;24.05;69.62;102130.50;5049007;28;20021;-76
2023/08/20 08:09:31;;;;;;;9.68;4.70;;;;;;;24.05;68.21;102132.34;5048325;28;20714;-75
2023/08/20 08:11:56;;;;;;;11.35;4.38;;;;;;;24.11;69.01;102134.34;5048747;28;20174;-76
2023/08/20 08:14:22;;;;;;;7.82;3.65;;;;;;;24.21;66.63;102140.38;5048697;28;20516;-76
2023/08/20 08:16:48;;;;;;;10.07;3.40;;;;;;;24.53;67.13;102150.25;5048113;28;20049;-76
2023/08/20 08:19:13;;;;;;;8.13;3.35;;;;;;;24.69;64.38;102149.34;5049273;28;20025;-76
2023/08/20 08:21:39;;;;;;;8.82;3.30;;;;;;;24.68;64.11;102153.03;5049624;28;20033;-76
2023/08/20 08:24:05;;;;;;;9.73;3.45;;;;;;;25.02;63.45;102143.84;5048847;28;20025;-76
2023/08/20 08:26:31;;;;;;;5.75;2.97;;;;;;;25.25;62.66;102142.03;5048222;28;20052;-76
2023/08/20 08:28:57;;;;;;;4.75;2.90;;;;;;;25.24;59.89;102137.66;5038027;28;20025;-76
2023/08/20 08:31:23;;;;;;;6.72;2.70;;;;;;;25.41;63.85;102144.59;5028947;28;20105;-76
2023/08/20 08:33:48;;;;;;;5.50;2.90;;;;;;;25.66;60.40;102141.72;5029505;28;20533;-76
2023/08/20 08:36:16;;;;;;;6.30;2.60;;;;;;;25.63;57.97;102151.03;5029307;28;20041;-75
2023/08/20 08:38:44;;;;;;;5.25;2.72;;;;;;;25.77;58.31;102144.03;5028904;28;20021;-75
2023/08/20 08:41:13;;;;;;;5.78;2.60;;;;;;;25.80;57.73;102144.50;5029081;28;20486;-76
2023/08/20 08:43:39;;;;;;;6.55;2.85;;;;;;;26.13;55.46;102150.44;5029728;28;20021;-75
2023/08/20 08:46:13;;;;;;;4.82;2.60;;;;;;;26.30;57.71;102147.53;5028559;28;20099;-75
2023/08/20 08:48:40;;;;;;;5.07;2.47;;;;;;;26.42;56.62;102148.81;5029524;28;20037;-76
2023/08/20 08:51:06;;;;;;;7.72;2.92;;;;;;;26.48;54.67;102153.47;5027130;28;20444;-76
2023/08/20 08:53:32;;;;;;;7.70;2.58;;;;;;;26.52;52.54;102150.19;5029425;28;20029;-76
2023/08/20 08:55:59;;;;;;;5.80;2.85;;;;;;;26.80;52.89;102147.63;5046892;28;20024;-76
2023/08/20 08:58:24;;;;;;;5.32;2.47;;;;;;;26.70;55.27;102149.81;5046592;28;20128;-76
2023/08/20 09:00:50;;;;;;;6.53;2.30;;;;;;;27.05;51.26;102155.47;5048154;28;20100;-76
2023/08/20 09:03:15;;;;;;;6.05;2.40;;;;;;;26.77;49.97;102150.72;5049217;28;21144;-76
2023/08/20 09:06:10;;;;;;;6.88;2.35;;;;;;;27.00;55.27;102152.50;5050142;28;20029;-75
2023/08/20 09:08:36;;;;;;;6.13;2.10;;;;;;;27.12;51.28;102154.50;5042941;28;20037;-76
2023/08/20 09:11:02;;;;;;;7.70;2.05;;;;;;;27.30;49.38;102154.09;5051616;28;20039;-76
2023/08/20 09:13:33;;;;;;;4.43;1.50;;;;;;;27.38;49.50;102156.66;5050873;28;20469;-76
2023/08/20 09:15:59;;;;;;;5.47;1.48;;;;;;;27.68;48.10;102157.41;5050112;28;20595;-76
2023/08/20 09:18:24;;;;;;;3.08;1.33;;;;;;;27.75;46.50;102142.06;5051548;28;20107;-76
2023/08/20 09:20:50;;;;;;;4.28;1.55;;;;;;;27.63;44.78;102151.75;5050885;28;20108;-76
2023/08/20 09:23:16;;;;;;;3.15;1.35;;;;;;;27.87;49.26;102144.25;5051346;28;20017;-76
2023/08/20 09:25:45;;;;;;;2.97;1.50;;;;;;;27.89;46.65;102148.41;5052628;28;20035;-76
2023/08/20 09:28:10;;;;;;;6.63;1.70;;;;;;;27.99;47.31;102148.91;5046517;28;20474;-76
2023/08/20 09:30:39;;;;;;;3.72;1.50;;;;;;;28.11;47.18;102149.22;5032783;28;20021;-75
2023/08/20 09:33:11;;;;;;;4.65;1.50;;;;;;;28.20;48.66;102152.59;5032203;28;20022;-75
2023/08/20 09:35:37;;;;;;;9.82;1.40;;;;;;;28.26;47.48;102154.56;5032045;28;20029;-75
2023/08/20 09:38:03;;;;;;;13.68;2.15;;;;;;;28.41;46.68;102163.38;5032182;28;20534;-75
2023/08/20 09:40:29;;;;;;;3.72;1.00;;;;;;;28.59;44.85;102157.47;5031554;28;20095;-75
2023/08/20 09:42:56;;;;;;;2.67;1.05;;;;;;;28.65;44.90;102152.06;5031888;28;20473;-75
2023/08/20 09:45:24;;;;;;;2.75;1.13;;;;;;;28.56;44.80;102161.41;5031869;28;20433;-75
2023/08/20 09:47:56;;;;;;;2.58;0.98;;;;;;;28.50;44.96;102154.09;5029791;28;20053;-74
2023/08/20 09:50:23;;;;;;;2.70;1.10;;;;;;;28.56;43.51;102156.00;5031979;28;20053;-75
2023/08/20 09:52:58;;;;;;;4.40;0.70;;;;;;;28.48;42.85;102153.44;5031849;28;20022;-74
2023/08/20 09:55:28;;;;;;;2.67;0.80;;;;;;;28.33;43.26;102155.44;5047007;28;20030;-75
2023/08/20 09:57:54;;;;;;;1.63;0.70;;;;;;;28.54;44.09;102152.66;5050776;28;20029;-76
2023/08/20 10:00:20;;;;;;;2.85;0.80;;;;;;;28.57;42.57;102154.94;5049478;28;20036;-75
2023/08/20 10:02:47;;;;;;;2.90;0.90;;;;;;;28.65;41.22;102154.78;5049947;28;20656;-77
2023/08/20 10:05:14;;;;;;;2.85;0.75;;;;;;;28.49;43.70;102155.13;5049485;28;20017;-73
2023/08/20 10:07:39;;;;;;;1.13;0.57;;;;;;;28.82;39.73;102151.72;5050898;28;20036;-74
2023/08/20 10:10:13;;;;;;;2.83;0.57;;;;;;;28.79;44.23;102157.53;5049917;28;20028;-75
2023/08/20 10:12:39;;;;;;;3.15;0.60;;;;;;;28.56;39.92;102145.16;5050663;28;20027;-75
2023/08/20 10:15:09;;;;;;;1.60;0.55;;;;;;;28.77;40.81;102148.78;5048991;28;20036;-74
2023/08/20 10:17:36;;;;;;;3.65;0.88;;;;;;;28.72;40.93;102146.69;5050359;28;20029;-74
2023/08/20 10:20:04;;;;;;;4.95;0.90;;;;;;;28.97;41.08;102153.28;5050455;28;20112;-75
2023/08/20 10:22:36;;;;;;;1.42;0.70;;;;;;;28.95;39.13;102154.53;5050179;28;20064;-75
2023/08/20 10:25:06;;;;;;;3.13;0.80;;;;;;;29.06;40.11;102156.63;5050293;28;20039;-74
2023/08/20 10:27:34;;;;;;;4.10;0.90;;;;;;;29.40;40.70;102152.13;5050122;28;20021;-75
2023/08/20 10:29:59;;;;;;;4.15;0.70;;;;;;;29.67;38.06;102147.63;5028186;28;20457;-74
2023/08/20 10:32:46;;;;;;;2.75;0.60;;;;;;;29.80;42.22;102142.19;5030170;28;20101;-75
2023/08/20 10:35:12;;;;;;;2.05;0.90;;;;;;;29.58;38.97;102149.69;5028859;28;20462;-74
2023/08/20 10:37:39;;;;;;;1.73;0.60;;;;;;;29.60;40.95;102147.59;5031081;28;20100;-75
2023/08/20 10:40:05;;;;;;;2.35;0.60;;;;;;;29.53;39.89;102147.59;5031075;28;20496;-74
2023/08/20 10:42:32;;;;;;;2.85;0.80;;;;;;;29.47;38.35;102148.41;5030909;28;20529;-75
2023/08/20 10:44:58;;;;;;;2.45;0.52;;;;;;;29.62;38.42;102145.53;5029190;28;20112;-75
2023/08/20 10:47:25;;;;;;;2.22;0.60;;;;;;;29.25;37.99;102145.03;5030464;28;20050;-74
2023/08/20 10:49:54;;;;;;;5.28;0.90;;;;;;;29.45;39.16;102150.50;5030870;28;20489;-74
2023/08/20 10:52:23;;;;;;;2.88;0.90;;;;;;;29.40;38.41;102147.56;5030158;28;20037;-75
2023/08/20 10:54:52;;;;;;;2.80;0.70;;;;;;;29.45;40.04;102139.66;5041176;28;20469;-75
2023/08/20 10:57:21;;;;;;;3.15;0.70;;;;;;;29.41;37.96;102145.69;5050458;28;20025;-75
2023/08/20 10:59:57;;;;;;;5.32;1.00;;;;;;;29.61;39.78;102144.66;5048775;28;20029;-74
2023/08/20 11:02:23;;;;;;;3.50;0.90;;;;;;;29.68;39.13;102147.41;5050299;28;20225;-74
2023/08/20 11:04:49;;;;;;;2.45;1.00;;;;;;;29.85;38.67;102150.53;5049815;28;20025;-75
2023/08/20 11:07:17;;;;;;;4.22;1.00;;;;;;;29.79;37.06;102149.50;5050206;28;20051;-75
2023/08/20 11:09:44;;;;;;;4.50;1.00;;;;;;;29.69;35.70;102140.94;5050265;28;20474;-74
2023/08/20 11:12:10;;;;;;;4.90;1.05;;;;;;;29.55;35.57;102141.97;5049547;28;20053;-75
2023/08/20 11:14:35;;;;;;;2.53;0.90;;;;;;;29.67;37.53;102144.91;5049536;28;20475;-75